KMKJ Airport Information

Runway Information
Runway 08 Length 5252 ft width 75 ft
Elevation 2558 ft Threshold 0 ft Heading 73
Runway 26 Length 5252 ft Width 75 ft
Elevation 2502 ft Threshold 0 ft Heading 253
Airport Frequencies
Type AWOS Name AWOS 3 Frequency 123.875 MHZ
Type CNTR Name ATLANTA CN Frequency 132.9 MHZ
Type UNIC Name CTAF/UNICO Frequency 122.7 MHZ
Airport Navaids
Airport Weather Information & NOTAM
ADDS - METARS form results

(1803 UTC 22 January 2021)
Data provider http://aviationweather.gov/metar/data/
 
METAR text: KMKJ 221755Z AUTO 25014G20KT 10SM CLR 07/01 A2993 RMK AO2 T00660005 10068 20009
Conditions at: KMKJ (MARION / WYTHEVI, VA, US) observed 1755 UTC 22 January 2021
Temperature: 6.6°C (44°F)
Dewpoint: 0.5°C (33°F) [RH = 65%]
Pressure (altimeter): 29.93 inches Hg (1013.6 mb)
Winds: from the WSW (250 degrees) at 16 MPH (14 knots; 7.2 m/s)
gusting to 23 MPH (20 knots; 10.3 m/s)
Visibility: 10 or more miles (16+ km)
Ceiling: at least 12,000 feet AGL
Clouds: sky clear below 12,000 feet AGL
Weather: automated observation with no human augmentation;
there may or may not be significant weather present at this time

METAR text: KMKJ 221735Z AUTO 24015G22KT 10SM CLR 06/00 A2993 RMK AO2 T00610003
Conditions at: KMKJ (MARION / WYTHEVI, VA, US) observed 1735 UTC 22 January 2021
Temperature: 6.1°C (43°F)
Dewpoint: 0.3°C (33°F) [RH = 66%]
Pressure (altimeter): 29.93 inches Hg (1013.6 mb)
Winds: from the WSW (240 degrees) at 17 MPH (15 knots; 7.7 m/s)
gusting to 25 MPH (22 knots; 11.3 m/s)
Visibility: 10 or more miles (16+ km)
Ceiling: at least 12,000 feet AGL
Clouds: sky clear below 12,000 feet AGL
Weather: automated observation with no human augmentation;
there may or may not be significant weather present at this time

METAR text: KMKJ 221715Z AUTO 24014G18KT 10SM CLR 06/00 A2994 RMK AO2 T00610003
Conditions at: KMKJ (MARION / WYTHEVI, VA, US) observed 1715 UTC 22 January 2021
Temperature: 6.1°C (43°F)
Dewpoint: 0.3°C (33°F) [RH = 66%]
Pressure (altimeter): 29.94 inches Hg (1014.0 mb)
Winds: from the WSW (240 degrees) at 16 MPH (14 knots; 7.2 m/s)
gusting to 21 MPH (18 knots; 9.3 m/s)
Visibility: 10 or more miles (16+ km)
Ceiling: at least 12,000 feet AGL
Clouds: sky clear below 12,000 feet AGL
Weather: automated observation with no human augmentation;
there may or may not be significant weather present at this time